Airfield :
LOGIN :

Register | Disclaimer

   EN    FR    IT 

 










Legend :    VFR   Marginal VFR   IFR   Intensive IFR   Very Intensive IFR
Visi :
Ceiling :
>= 8 km
>= 3000ft
5 to 8 km
1000 to 3000 ft
1500m to 5 km
500 to 1000 ft
800 to 1500m
200 to 500 ft
< 800m
< 200 ft
Symbols :   Thunderstorms  Fog  Heavy snow  Heavy precipitations  Wind > 20 kt
SIGMETs :     Misc.  Thunderstorms  Icing  Turbulence  Mountain Waves  Volcanic Ashes






- Airport Elevation : 796 ft
- IATA code : SYT


LFLN - Saint-Yan

CURRENT METAR :
  • 081000Z AUTO 10009KT 070V130 9999 SCT012 BKN025 03/00 Q1010 NOSIG

EXPIRED METARs :
  • 080930Z AUTO 09008KT 9999 FEW011 SCT029 03/01 Q1010 NOSIG
  • 080900Z AUTO 09009KT 9999 FEW028 02/00 Q1010 NOSIG
  • 080830Z AUTO 08007KT 9999 OVC027 02/00 Q1010 NOSIG
  • 080800Z AUTO 10007KT 9999 OVC028 02/M00 Q1010 NOSIG
  • 080730Z AUTO 08007KT 9999 OVC029 02/00 Q1010 NOSIG

TAF TAF LFLN
Valid from the 08 at 09:00 until the 08 at 18:00 UTC


080800Z 0809/0818 09007KT 9999 BKN025



MET'MAP, your aeronautical weather chart ! - Copyright ORBIFLY December 2007 - Disclaimer

ORBIFLY MET'MAP TEAM :

Programming & Development : Alexandra Zaïnal
Original concept : Baudouin d'Aumeries
Technical & hardware support : Manuel Goepfert
Assistance : Marc-Olivier Méhu




SOURCES & CREDITS :

   NOAA